sensor_id;sensor_type;location;lat;lon;timestamp;P1;durP1;ratioP1;P2;durP2;ratioP2
8293;SDS011;4185;41.506;24.938;2023-04-25T00:01:39;6.17;;;5.23;;
8293;SDS011;4185;41.506;24.938;2023-04-25T00:04:05;6.00;;;4.90;;
8293;SDS011;4185;41.506;24.938;2023-04-25T00:06:33;5.87;;;4.73;;
8293;SDS011;4185;41.506;24.938;2023-04-25T00:09:02;5.30;;;4.40;;
8293;SDS011;4185;41.506;24.938;2023-04-25T00:11:32;4.23;;;3.83;;
8293;SDS011;4185;41.506;24.938;2023-04-25T00:13:58;6.37;;;4.60;;
8293;SDS011;4185;41.506;24.938;2023-04-25T00:16:27;6.20;;;4.80;;
8293;SDS011;4185;41.506;24.938;2023-04-25T00:18:55;4.80;;;4.27;;
8293;SDS011;4185;41.506;24.938;2023-04-25T00:21:24;5.03;;;4.50;;
8293;SDS011;4185;41.506;24.938;2023-04-25T00:23:51;4.27;;;3.87;;
8293;SDS011;4185;41.506;24.938;2023-04-25T00:26:19;4.50;;;3.97;;
8293;SDS011;4185;41.506;24.938;2023-04-25T00:28:46;6.27;;;4.77;;
8293;SDS011;4185;41.506;24.938;2023-04-25T00:31:12;4.93;;;4.37;;
8293;SDS011;4185;41.506;24.938;2023-04-25T00:33:39;4.50;;;4.00;;
8293;SDS011;4185;41.506;24.938;2023-04-25T00:36:08;3.97;;;3.57;;
8293;SDS011;4185;41.506;24.938;2023-04-25T00:38:35;4.00;;;3.60;;
8293;SDS011;4185;41.506;24.938;2023-04-25T00:41:03;3.53;;;3.23;;
8293;SDS011;4185;41.506;24.938;2023-04-25T00:43:31;3.90;;;3.50;;
8293;SDS011;4185;41.506;24.938;2023-04-25T00:45:59;3.93;;;3.57;;
8293;SDS011;4185;41.506;24.938;2023-04-25T00:48:26;4.07;;;3.67;;
8293;SDS011;4185;41.506;24.938;2023-04-25T00:50:54;4.20;;;3.40;;
8293;SDS011;4185;41.506;24.938;2023-04-25T00:53:24;3.93;;;3.43;;
8293;SDS011;4185;41.506;24.938;2023-04-25T00:55:53;6.60;;;3.60;;
8293;SDS011;4185;41.506;24.938;2023-04-25T00:58:20;3.67;;;3.37;;
8293;SDS011;4185;41.506;24.938;2023-04-25T01:00:48;6.57;;;4.90;;
8293;SDS011;4185;41.506;24.938;2023-04-25T01:03:17;6.60;;;5.17;;
8293;SDS011;4185;41.506;24.938;2023-04-25T01:05:44;7.37;;;6.10;;
8293;SDS011;4185;41.506;24.938;2023-04-25T01:08:12;7.27;;;5.80;;
8293;SDS011;4185;41.506;24.938;2023-04-25T01:10:40;7.23;;;5.00;;
8293;SDS011;4185;41.506;24.938;2023-04-25T01:13:07;8.33;;;5.43;;
8293;SDS011;4185;41.506;24.938;2023-04-25T01:15:34;4.77;;;4.27;;
8293;SDS011;4185;41.506;24.938;2023-04-25T01:18:02;4.83;;;3.70;;
8293;SDS011;4185;41.506;24.938;2023-04-25T01:20:29;4.43;;;4.03;;
8293;SDS011;4185;41.506;24.938;2023-04-25T01:22:59;5.27;;;3.90;;
8293;SDS011;4185;41.506;24.938;2023-04-25T01:25:28;3.93;;;3.30;;
8293;SDS011;4185;41.506;24.938;2023-04-25T01:27:55;2.83;;;2.63;;
8293;SDS011;4185;41.506;24.938;2023-04-25T01:30:22;3.67;;;3.20;;
8293;SDS011;4185;41.506;24.938;2023-04-25T01:32:50;3.77;;;3.10;;
8293;SDS011;4185;41.506;24.938;2023-04-25T01:35:17;3.67;;;2.67;;
8293;SDS011;4185;41.506;24.938;2023-04-25T01:37:44;3.40;;;2.80;;
8293;SDS011;4185;41.506;24.938;2023-04-25T01:40:12;4.97;;;3.10;;
8293;SDS011;4185;41.506;24.938;2023-04-25T01:42:41;3.40;;;3.10;;
8293;SDS011;4185;41.506;24.938;2023-04-25T01:45:09;4.83;;;3.20;;
8293;SDS011;4185;41.506;24.938;2023-04-25T01:47:37;4.57;;;3.97;;
8293;SDS011;4185;41.506;24.938;2023-04-25T01:50:07;6.33;;;4.50;;
8293;SDS011;4185;41.506;24.938;2023-04-25T01:52:34;5.70;;;4.13;;
8293;SDS011;4185;41.506;24.938;2023-04-25T01:55:01;3.93;;;3.53;;
8293;SDS011;4185;41.506;24.938;2023-04-25T01:57:29;4.20;;;3.57;;
8293;SDS011;4185;41.506;24.938;2023-04-25T01:59:58;5.10;;;3.60;;
8293;SDS011;4185;41.506;24.938;2023-04-25T02:02:26;4.60;;;3.23;;
8293;SDS011;4185;41.506;24.938;2023-04-25T02:04:53;4.40;;;3.60;;
8293;SDS011;4185;41.506;24.938;2023-04-25T02:07:21;3.67;;;3.30;;
8293;SDS011;4185;41.506;24.938;2023-04-25T02:09:48;2.77;;;2.27;;
8293;SDS011;4185;41.506;24.938;2023-04-25T02:12:14;3.70;;;2.93;;
8293;SDS011;4185;41.506;24.938;2023-04-25T02:14:43;4.77;;;3.30;;
8293;SDS011;4185;41.506;24.938;2023-04-25T02:17:10;4.00;;;3.13;;
8293;SDS011;4185;41.506;24.938;2023-04-25T02:19:37;3.43;;;2.90;;
8293;SDS011;4185;41.506;24.938;2023-04-25T02:22:04;4.80;;;3.60;;
8293;SDS011;4185;41.506;24.938;2023-04-25T02:24:31;4.73;;;3.30;;
8293;SDS011;4185;41.506;24.938;2023-04-25T02:26:59;4.73;;;3.43;;
8293;SDS011;4185;41.506;24.938;2023-04-25T02:29:25;7.67;;;4.40;;
8293;SDS011;4185;41.506;24.938;2023-04-25T02:31:54;7.80;;;4.37;;
8293;SDS011;4185;41.506;24.938;2023-04-25T02:34:21;4.63;;;3.60;;
8293;SDS011;4185;41.506;24.938;2023-04-25T02:36:47;4.97;;;3.47;;
8293;SDS011;4185;41.506;24.938;2023-04-25T02:39:15;3.63;;;2.63;;
8293;SDS011;4185;41.506;24.938;2023-04-25T02:41:41;3.93;;;3.43;;
8293;SDS011;4185;41.506;24.938;2023-04-25T02:44:08;3.60;;;3.30;;
8293;SDS011;4185;41.506;24.938;2023-04-25T02:46:35;3.87;;;3.33;;
8293;SDS011;4185;41.506;24.938;2023-04-25T02:49:03;4.13;;;2.60;;
8293;SDS011;4185;41.506;24.938;2023-04-25T02:51:30;2.80;;;2.50;;
8293;SDS011;4185;41.506;24.938;2023-04-25T02:53:57;2.90;;;2.43;;
8293;SDS011;4185;41.506;24.938;2023-04-25T02:56:25;4.27;;;2.57;;
8293;SDS011;4185;41.506;24.938;2023-04-25T02:58:52;7.30;;;4.30;;
8293;SDS011;4185;41.506;24.938;2023-04-25T03:01:19;5.20;;;3.97;;
8293;SDS011;4185;41.506;24.938;2023-04-25T03:03:46;7.23;;;3.77;;
8293;SDS011;4185;41.506;24.938;2023-04-25T03:06:14;2.80;;;2.60;;
8293;SDS011;4185;41.506;24.938;2023-04-25T03:08:41;5.13;;;3.20;;
8293;SDS011;4185;41.506;24.938;2023-04-25T03:11:08;5.53;;;4.33;;
8293;SDS011;4185;41.506;24.938;2023-04-25T03:13:35;5.10;;;3.17;;
8293;SDS011;4185;41.506;24.938;2023-04-25T03:16:02;3.43;;;3.07;;
8293;SDS011;4185;41.506;24.938;2023-04-25T03:18:29;3.30;;;3.00;;
8293;SDS011;4185;41.506;24.938;2023-04-25T03:20:56;3.80;;;3.30;;
8293;SDS011;4185;41.506;24.938;2023-04-25T03:23:24;3.37;;;3.07;;
8293;SDS011;4185;41.506;24.938;2023-04-25T03:25:51;3.07;;;2.80;;
8293;SDS011;4185;41.506;24.938;2023-04-25T03:28:17;3.30;;;3.00;;
8293;SDS011;4185;41.506;24.938;2023-04-25T03:30:45;3.37;;;3.10;;
8293;SDS011;4185;41.506;24.938;2023-04-25T03:33:11;4.33;;;3.93;;
8293;SDS011;4185;41.506;24.938;2023-04-25T03:35:38;3.57;;;3.27;;
8293;SDS011;4185;41.506;24.938;2023-04-25T03:38:05;3.37;;;3.07;;
8293;SDS011;4185;41.506;24.938;2023-04-25T03:40:33;3.90;;;3.40;;
8293;SDS011;4185;41.506;24.938;2023-04-25T03:43:00;6.83;;;3.93;;
8293;SDS011;4185;41.506;24.938;2023-04-25T03:45:27;5.17;;;4.77;;
8293;SDS011;4185;41.506;24.938;2023-04-25T03:47:53;6.33;;;4.57;;
8293;SDS011;4185;41.506;24.938;2023-04-25T03:50:20;5.27;;;4.77;;
8293;SDS011;4185;41.506;24.938;2023-04-25T03:52:47;6.07;;;4.13;;
8293;SDS011;4185;41.506;24.938;2023-04-25T03:55:14;8.83;;;5.37;;
8293;SDS011;4185;41.506;24.938;2023-04-25T03:57:42;7.57;;;6.13;;
8293;SDS011;4185;41.506;24.938;2023-04-25T04:00:10;6.50;;;5.50;;
8293;SDS011;4185;41.506;24.938;2023-04-25T04:02:38;6.43;;;5.00;;
8293;SDS011;4185;41.506;24.938;2023-04-25T04:05:04;5.87;;;5.23;;
8293;SDS011;4185;41.506;24.938;2023-04-25T04:07:32;6.20;;;4.97;;
8293;SDS011;4185;41.506;24.938;2023-04-25T04:10:04;11.90;;;7.37;;
8293;SDS011;4185;41.506;24.938;2023-04-25T04:12:32;9.23;;;6.17;;
8293;SDS011;4185;41.506;24.938;2023-04-25T04:15:00;10.70;;;6.23;;
8293;SDS011;4185;41.506;24.938;2023-04-25T04:17:28;11.70;;;6.77;;
8293;SDS011;4185;41.506;24.938;2023-04-25T04:19:54;8.10;;;6.47;;
8293;SDS011;4185;41.506;24.938;2023-04-25T04:22:21;10.03;;;6.10;;
8293;SDS011;4185;41.506;24.938;2023-04-25T04:24:48;11.53;;;7.83;;
8293;SDS011;4185;41.506;24.938;2023-04-25T04:27:15;10.00;;;7.30;;
8293;SDS011;4185;41.506;24.938;2023-04-25T04:29:44;5.50;;;4.97;;
8293;SDS011;4185;41.506;24.938;2023-04-25T04:32:12;7.00;;;5.53;;
8293;SDS011;4185;41.506;24.938;2023-04-25T04:34:39;8.87;;;7.20;;
8293;SDS011;4185;41.506;24.938;2023-04-25T04:37:07;12.37;;;10.93;;
8293;SDS011;4185;41.506;24.938;2023-04-25T04:39:35;9.13;;;6.40;;
8293;SDS011;4185;41.506;24.938;2023-04-25T04:42:02;12.23;;;6.90;;
8293;SDS011;4185;41.506;24.938;2023-04-25T04:44:30;9.93;;;5.83;;
8293;SDS011;4185;41.506;24.938;2023-04-25T04:46:59;8.93;;;6.10;;
8293;SDS011;4185;41.506;24.938;2023-04-25T04:49:27;9.13;;;6.77;;
8293;SDS011;4185;41.506;24.938;2023-04-25T04:51:54;9.53;;;7.47;;
8293;SDS011;4185;41.506;24.938;2023-04-25T04:54:21;12.50;;;7.53;;
8293;SDS011;4185;41.506;24.938;2023-04-25T04:56:47;8.33;;;6.83;;
8293;SDS011;4185;41.506;24.938;2023-04-25T04:59:15;13.90;;;8.00;;
8293;SDS011;4185;41.506;24.938;2023-04-25T05:01:42;9.30;;;7.33;;
8293;SDS011;4185;41.506;24.938;2023-04-25T05:04:08;10.63;;;7.40;;
8293;SDS011;4185;41.506;24.938;2023-04-25T05:06:36;9.63;;;6.63;;
8293;SDS011;4185;41.506;24.938;2023-04-25T05:09:03;7.30;;;5.80;;
8293;SDS011;4185;41.506;24.938;2023-04-25T05:11:30;26.87;;;15.40;;
8293;SDS011;4185;41.506;24.938;2023-04-25T05:13:57;25.67;;;17.17;;
8293;SDS011;4185;41.506;24.938;2023-04-25T05:16:24;30.27;;;19.37;;
8293;SDS011;4185;41.506;24.938;2023-04-25T05:18:51;14.67;;;9.60;;
8293;SDS011;4185;41.506;24.938;2023-04-25T05:21:17;14.53;;;9.37;;
8293;SDS011;4185;41.506;24.938;2023-04-25T05:23:45;6.73;;;4.97;;
8293;SDS011;4185;41.506;24.938;2023-04-25T05:26:12;5.77;;;4.07;;
8293;SDS011;4185;41.506;24.938;2023-04-25T05:28:39;6.53;;;5.17;;
8293;SDS011;4185;41.506;24.938;2023-04-25T05:31:07;8.67;;;6.30;;
8293;SDS011;4185;41.506;24.938;2023-04-25T05:33:35;10.53;;;7.97;;
8293;SDS011;4185;41.506;24.938;2023-04-25T05:36:02;14.13;;;8.87;;
8293;SDS011;4185;41.506;24.938;2023-04-25T05:38:29;10.77;;;7.03;;
8293;SDS011;4185;41.506;24.938;2023-04-25T05:40:57;16.43;;;10.13;;
8293;SDS011;4185;41.506;24.938;2023-04-25T05:43:24;9.70;;;6.13;;
8293;SDS011;4185;41.506;24.938;2023-04-25T05:45:51;8.43;;;5.57;;
8293;SDS011;4185;41.506;24.938;2023-04-25T05:48:18;7.00;;;5.60;;
8293;SDS011;4185;41.506;24.938;2023-04-25T05:50:44;9.37;;;6.10;;
8293;SDS011;4185;41.506;24.938;2023-04-25T05:53:11;7.97;;;5.50;;
8293;SDS011;4185;41.506;24.938;2023-04-25T05:55:38;8.03;;;5.70;;
8293;SDS011;4185;41.506;24.938;2023-04-25T05:58:06;10.50;;;7.53;;
8293;SDS011;4185;41.506;24.938;2023-04-25T06:00:33;9.47;;;6.13;;
8293;SDS011;4185;41.506;24.938;2023-04-25T06:03:00;9.83;;;6.60;;
8293;SDS011;4185;41.506;24.938;2023-04-25T06:05:27;8.27;;;5.60;;
8293;SDS011;4185;41.506;24.938;2023-04-25T06:07:54;7.93;;;5.63;;
8293;SDS011;4185;41.506;24.938;2023-04-25T06:10:21;4.73;;;4.20;;
8293;SDS011;4185;41.506;24.938;2023-04-25T06:12:48;5.47;;;4.87;;
8293;SDS011;4185;41.506;24.938;2023-04-25T06:15:16;6.77;;;4.80;;
8293;SDS011;4185;41.506;24.938;2023-04-25T06:17:43;8.47;;;6.27;;
8293;SDS011;4185;41.506;24.938;2023-04-25T06:20:10;6.57;;;4.70;;
8293;SDS011;4185;41.506;24.938;2023-04-25T06:22:37;5.20;;;4.43;;
8293;SDS011;4185;41.506;24.938;2023-04-25T06:25:04;5.60;;;4.20;;
8293;SDS011;4185;41.506;24.938;2023-04-25T06:27:32;4.93;;;4.43;;
8293;SDS011;4185;41.506;24.938;2023-04-25T06:29:59;7.33;;;5.50;;
8293;SDS011;4185;41.506;24.938;2023-04-25T06:32:27;7.53;;;5.50;;
8293;SDS011;4185;41.506;24.938;2023-04-25T06:34:55;12.53;;;8.40;;
8293;SDS011;4185;41.506;24.938;2023-04-25T06:37:22;6.90;;;6.17;;
8293;SDS011;4185;41.506;24.938;2023-04-25T06:39:49;8.90;;;6.50;;
8293;SDS011;4185;41.506;24.938;2023-04-25T06:42:16;7.47;;;5.70;;
8293;SDS011;4185;41.506;24.938;2023-04-25T06:44:42;7.97;;;5.90;;
8293;SDS011;4185;41.506;24.938;2023-04-25T06:47:10;5.20;;;4.70;;
8293;SDS011;4185;41.506;24.938;2023-04-25T06:49:38;5.47;;;4.03;;
8293;SDS011;4185;41.506;24.938;2023-04-25T06:52:05;5.10;;;3.07;;
8293;SDS011;4185;41.506;24.938;2023-04-25T06:54:32;5.63;;;4.10;;
8293;SDS011;4185;41.506;24.938;2023-04-25T06:56:58;3.40;;;3.10;;
8293;SDS011;4185;41.506;24.938;2023-04-25T06:59:26;6.27;;;3.73;;
8293;SDS011;4185;41.506;24.938;2023-04-25T07:01:53;5.23;;;3.67;;
8293;SDS011;4185;41.506;24.938;2023-04-25T07:04:20;3.80;;;3.23;;
8293;SDS011;4185;41.506;24.938;2023-04-25T07:06:48;4.47;;;3.27;;
8293;SDS011;4185;41.506;24.938;2023-04-25T07:09:15;4.80;;;3.47;;
8293;SDS011;4185;41.506;24.938;2023-04-25T07:11:41;5.03;;;3.60;;
8293;SDS011;4185;41.506;24.938;2023-04-25T07:14:08;2.80;;;2.60;;
8293;SDS011;4185;41.506;24.938;2023-04-25T07:16:35;2.63;;;2.43;;
8293;SDS011;4185;41.506;24.938;2023-04-25T07:19:02;3.30;;;3.00;;
8293;SDS011;4185;41.506;24.938;2023-04-25T07:21:29;3.30;;;3.00;;
8293;SDS011;4185;41.506;24.938;2023-04-25T07:23:59;3.63;;;2.43;;
8293;SDS011;4185;41.506;24.938;2023-04-25T07:26:25;4.13;;;3.00;;
8293;SDS011;4185;41.506;24.938;2023-04-25T07:28:52;2.07;;;1.87;;
8293;SDS011;4185;41.506;24.938;2023-04-25T07:31:19;2.87;;;2.03;;
8293;SDS011;4185;41.506;24.938;2023-04-25T07:33:47;2.40;;;2.20;;
8293;SDS011;4185;41.506;24.938;2023-04-25T07:36:14;2.70;;;2.40;;
8293;SDS011;4185;41.506;24.938;2023-04-25T07:38:41;3.07;;;2.77;;
8293;SDS011;4185;41.506;24.938;2023-04-25T07:41:09;3.73;;;3.00;;
8293;SDS011;4185;41.506;24.938;2023-04-25T07:43:36;3.20;;;3.00;;
8293;SDS011;4185;41.506;24.938;2023-04-25T07:46:03;3.50;;;3.20;;
8293;SDS011;4185;41.506;24.938;2023-04-25T07:48:31;7.07;;;5.13;;
8293;SDS011;4185;41.506;24.938;2023-04-25T07:50:58;5.00;;;4.10;;
8293;SDS011;4185;41.506;24.938;2023-04-25T07:53:25;4.30;;;3.90;;
8293;SDS011;4185;41.506;24.938;2023-04-25T07:55:52;9.80;;;5.97;;
8293;SDS011;4185;41.506;24.938;2023-04-25T07:58:20;6.27;;;4.30;;
8293;SDS011;4185;41.506;24.938;2023-04-25T08:00:47;4.10;;;3.00;;
8293;SDS011;4185;41.506;24.938;2023-04-25T08:03:14;3.50;;;3.20;;
8293;SDS011;4185;41.506;24.938;2023-04-25T08:05:41;4.30;;;3.90;;
8293;SDS011;4185;41.506;24.938;2023-04-25T08:08:07;3.90;;;3.50;;
8293;SDS011;4185;41.506;24.938;2023-04-25T08:10:34;7.67;;;5.17;;
8293;SDS011;4185;41.506;24.938;2023-04-25T08:13:01;5.77;;;4.70;;
8293;SDS011;4185;41.506;24.938;2023-04-25T08:15:30;6.07;;;4.80;;
8293;SDS011;4185;41.506;24.938;2023-04-25T08:17:56;4.80;;;4.30;;
8293;SDS011;4185;41.506;24.938;2023-04-25T08:20:24;6.43;;;4.50;;
8293;SDS011;4185;41.506;24.938;2023-04-25T08:22:51;11.90;;;7.23;;
8293;SDS011;4185;41.506;24.938;2023-04-25T08:25:18;5.87;;;5.03;;
8293;SDS011;4185;41.506;24.938;2023-04-25T08:27:45;5.20;;;4.70;;
8293;SDS011;4185;41.506;24.938;2023-04-25T08:30:12;4.80;;;4.07;;
8293;SDS011;4185;41.506;24.938;2023-04-25T08:32:40;6.47;;;4.90;;
8293;SDS011;4185;41.506;24.938;2023-04-25T08:35:07;4.10;;;3.67;;
8293;SDS011;4185;41.506;24.938;2023-04-25T08:37:34;3.97;;;3.67;;
8293;SDS011;4185;41.506;24.938;2023-04-25T08:40:03;6.23;;;5.00;;
8293;SDS011;4185;41.506;24.938;2023-04-25T08:42:32;6.83;;;5.40;;
8293;SDS011;4185;41.506;24.938;2023-04-25T08:45:01;4.47;;;4.07;;
8293;SDS011;4185;41.506;24.938;2023-04-25T08:47:29;37.73;;;26.83;;
8293;SDS011;4185;41.506;24.938;2023-04-25T08:50:00;10.93;;;8.03;;
8293;SDS011;4185;41.506;24.938;2023-04-25T08:52:32;6.03;;;5.20;;
8293;SDS011;4185;41.506;24.938;2023-04-25T08:55:03;4.93;;;4.20;;
8293;SDS011;4185;41.506;24.938;2023-04-25T08:57:33;4.10;;;3.73;;
8293;SDS011;4185;41.506;24.938;2023-04-25T09:00:01;3.87;;;3.57;;
8293;SDS011;4185;41.506;24.938;2023-04-25T09:02:30;3.80;;;3.50;;
8293;SDS011;4185;41.506;24.938;2023-04-25T09:04:57;3.50;;;3.20;;
8293;SDS011;4185;41.506;24.938;2023-04-25T09:07:26;3.77;;;2.97;;
8293;SDS011;4185;41.506;24.938;2023-04-25T09:09:53;3.93;;;3.43;;
8293;SDS011;4185;41.506;24.938;2023-04-25T09:12:20;3.63;;;3.33;;
8293;SDS011;4185;41.506;24.938;2023-04-25T09:15:03;4.60;;;3.07;;
8293;SDS011;4185;41.506;24.938;2023-04-25T09:17:32;3.50;;;2.80;;
8293;SDS011;4185;41.506;24.938;2023-04-25T09:20:05;4.13;;;3.70;;
8293;SDS011;4185;41.506;24.938;2023-04-25T09:22:35;4.10;;;3.43;;
8293;SDS011;4185;41.506;24.938;2023-04-25T09:25:03;3.60;;;3.30;;
8293;SDS011;4185;41.506;24.938;2023-04-25T09:27:34;3.60;;;3.30;;
8293;SDS011;4185;41.506;24.938;2023-04-25T09:30:01;3.43;;;3.20;;
8293;SDS011;4185;41.506;24.938;2023-04-25T09:32:29;3.50;;;3.20;;
8293;SDS011;4185;41.506;24.938;2023-04-25T09:34:56;4.70;;;2.90;;
8293;SDS011;4185;41.506;24.938;2023-04-25T09:37:24;3.63;;;2.97;;
8293;SDS011;4185;41.506;24.938;2023-04-25T09:39:54;2.87;;;2.67;;
8293;SDS011;4185;41.506;24.938;2023-04-25T09:42:23;2.77;;;2.57;;
8293;SDS011;4185;41.506;24.938;2023-04-25T09:44:52;3.17;;;2.73;;
8293;SDS011;4185;41.506;24.938;2023-04-25T09:47:19;3.20;;;2.50;;
8293;SDS011;4185;41.506;24.938;2023-04-25T09:49:48;2.50;;;2.30;;
8293;SDS011;4185;41.506;24.938;2023-04-25T09:52:16;3.20;;;2.90;;
8293;SDS011;4185;41.506;24.938;2023-04-25T09:54:45;3.00;;;2.80;;
8293;SDS011;4185;41.506;24.938;2023-04-25T09:57:14;3.07;;;2.87;;
8293;SDS011;4185;41.506;24.938;2023-04-25T09:59:43;3.23;;;2.93;;
8293;SDS011;4185;41.506;24.938;2023-04-25T10:02:12;2.60;;;2.40;;
8293;SDS011;4185;41.506;24.938;2023-04-25T10:04:40;3.03;;;2.13;;
8293;SDS011;4185;41.506;24.938;2023-04-25T10:07:07;2.13;;;1.90;;
8293;SDS011;4185;41.506;24.938;2023-04-25T10:09:36;3.20;;;2.23;;
8293;SDS011;4185;41.506;24.938;2023-04-25T10:12:04;2.60;;;2.40;;
8293;SDS011;4185;41.506;24.938;2023-04-25T10:14:33;3.37;;;2.33;;
8293;SDS011;4185;41.506;24.938;2023-04-25T10:17:01;2.47;;;2.27;;
8293;SDS011;4185;41.506;24.938;2023-04-25T10:19:28;1.77;;;1.67;;
8293;SDS011;4185;41.506;24.938;2023-04-25T10:21:58;1.87;;;1.50;;
8293;SDS011;4185;41.506;24.938;2023-04-25T10:24:30;1.80;;;1.70;;
8293;SDS011;4185;41.506;24.938;2023-04-25T10:26:58;2.00;;;1.80;;
8293;SDS011;4185;41.506;24.938;2023-04-25T10:29:26;1.80;;;1.70;;
8293;SDS011;4185;41.506;24.938;2023-04-25T10:31:55;2.10;;;2.00;;
8293;SDS011;4185;41.506;24.938;2023-04-25T10:34:23;1.70;;;1.60;;
8293;SDS011;4185;41.506;24.938;2023-04-25T10:37:04;1.97;;;1.77;;
8293;SDS011;4185;41.506;24.938;2023-04-25T10:39:32;2.07;;;1.90;;
8293;SDS011;4185;41.506;24.938;2023-04-25T10:41:59;2.20;;;2.10;;
8293;SDS011;4185;41.506;24.938;2023-04-25T10:44:28;2.80;;;1.70;;
8293;SDS011;4185;41.506;24.938;2023-04-25T10:46:58;2.03;;;1.70;;
8293;SDS011;4185;41.506;24.938;2023-04-25T10:49:30;1.73;;;1.63;;
8293;SDS011;4185;41.506;24.938;2023-04-25T10:52:14;2.00;;;1.80;;
8293;SDS011;4185;41.506;24.938;2023-04-25T10:54:46;2.30;;;1.83;;
8293;SDS011;4185;41.506;24.938;2023-04-25T10:57:29;2.27;;;2.07;;
8293;SDS011;4185;41.506;24.938;2023-04-25T11:00:10;1.83;;;1.73;;
8293;SDS011;4185;41.506;24.938;2023-04-25T11:02:45;2.43;;;2.00;;
8293;SDS011;4185;41.506;24.938;2023-04-25T11:05:19;1.87;;;1.73;;
8293;SDS011;4185;41.506;24.938;2023-04-25T11:07:49;4.40;;;1.70;;
8293;SDS011;4185;41.506;24.938;2023-04-25T11:10:18;1.90;;;1.67;;
8293;SDS011;4185;41.506;24.938;2023-04-25T11:12:46;1.73;;;1.63;;
8293;SDS011;4185;41.506;24.938;2023-04-25T11:15:13;1.87;;;1.77;;
8293;SDS011;4185;41.506;24.938;2023-04-25T11:17:40;1.30;;;1.20;;
8293;SDS011;4185;41.506;24.938;2023-04-25T11:20:10;1.90;;;1.60;;
8293;SDS011;4185;41.506;24.938;2023-04-25T11:22:38;2.20;;;2.10;;
8293;SDS011;4185;41.506;24.938;2023-04-25T11:25:07;1.87;;;1.70;;
8293;SDS011;4185;41.506;24.938;2023-04-25T11:27:37;3.13;;;1.80;;
8293;SDS011;4185;41.506;24.938;2023-04-25T11:30:13;1.73;;;1.57;;
8293;SDS011;4185;41.506;24.938;2023-04-25T11:32:41;5.03;;;3.20;;
8293;SDS011;4185;41.506;24.938;2023-04-25T11:35:09;1.90;;;1.80;;
8293;SDS011;4185;41.506;24.938;2023-04-25T11:37:38;3.20;;;2.83;;
8293;SDS011;4185;41.506;24.938;2023-04-25T11:40:06;1.53;;;1.40;;
8293;SDS011;4185;41.506;24.938;2023-04-25T11:42:36;1.30;;;1.20;;
8293;SDS011;4185;41.506;24.938;2023-04-25T11:45:03;2.00;;;1.43;;
8293;SDS011;4185;41.506;24.938;2023-04-25T11:47:31;2.07;;;1.40;;
8293;SDS011;4185;41.506;24.938;2023-04-25T11:49:59;1.60;;;1.50;;
8293;SDS011;4185;41.506;24.938;2023-04-25T11:52:36;1.97;;;1.53;;
8293;SDS011;4185;41.506;24.938;2023-04-25T11:55:05;1.57;;;1.47;;
8293;SDS011;4185;41.506;24.938;2023-04-25T11:57:33;1.93;;;1.80;;
8293;SDS011;4185;41.506;24.938;2023-04-25T12:00:07;1.40;;;1.30;;
8293;SDS011;4185;41.506;24.938;2023-04-25T12:02:40;1.70;;;1.60;;
8293;SDS011;4185;41.506;24.938;2023-04-25T12:05:08;1.50;;;1.40;;
8293;SDS011;4185;41.506;24.938;2023-04-25T12:07:36;1.33;;;1.23;;
8293;SDS011;4185;41.506;24.938;2023-04-25T12:10:04;1.50;;;1.40;;
8293;SDS011;4185;41.506;24.938;2023-04-25T12:12:33;1.60;;;1.43;;
8293;SDS011;4185;41.506;24.938;2023-04-25T12:15:08;1.63;;;1.53;;
8293;SDS011;4185;41.506;24.938;2023-04-25T12:17:36;1.40;;;1.30;;
8293;SDS011;4185;41.506;24.938;2023-04-25T12:20:07;1.40;;;1.30;;
8293;SDS011;4185;41.506;24.938;2023-04-25T12:22:37;1.70;;;1.60;;
8293;SDS011;4185;41.506;24.938;2023-04-25T12:25:04;1.70;;;1.60;;
8293;SDS011;4185;41.506;24.938;2023-04-25T12:27:35;1.50;;;1.40;;
8293;SDS011;4185;41.506;24.938;2023-04-25T12:30:07;2.30;;;1.70;;
8293;SDS011;4185;41.506;24.938;2023-04-25T12:32:35;2.50;;;2.30;;
8293;SDS011;4185;41.506;24.938;2023-04-25T12:35:03;2.17;;;1.83;;
8293;SDS011;4185;41.506;24.938;2023-04-25T12:37:30;2.17;;;2.00;;
8293;SDS011;4185;41.506;24.938;2023-04-25T12:39:58;4.93;;;2.83;;
8293;SDS011;4185;41.506;24.938;2023-04-25T12:42:25;2.40;;;2.20;;
8293;SDS011;4185;41.506;24.938;2023-04-25T12:44:52;4.27;;;2.20;;
8293;SDS011;4185;41.506;24.938;2023-04-25T12:47:18;2.40;;;2.20;;
8293;SDS011;4185;41.506;24.938;2023-04-25T12:49:47;2.63;;;2.37;;
8293;SDS011;4185;41.506;24.938;2023-04-25T12:52:13;3.53;;;2.90;;
8293;SDS011;4185;41.506;24.938;2023-04-25T12:54:40;4.13;;;3.47;;
8293;SDS011;4185;41.506;24.938;2023-04-25T12:57:08;1.80;;;1.70;;
8293;SDS011;4185;41.506;24.938;2023-04-25T12:59:36;1.73;;;1.63;;
8293;SDS011;4185;41.506;24.938;2023-04-25T13:02:03;2.10;;;1.90;;
8293;SDS011;4185;41.506;24.938;2023-04-25T13:04:29;2.77;;;1.80;;
8293;SDS011;4185;41.506;24.938;2023-04-25T13:06:56;3.20;;;2.90;;
8293;SDS011;4185;41.506;24.938;2023-04-25T13:09:23;5.20;;;2.90;;
8293;SDS011;4185;41.506;24.938;2023-04-25T13:11:50;2.80;;;2.03;;
8293;SDS011;4185;41.506;24.938;2023-04-25T13:14:18;3.10;;;2.80;;
8293;SDS011;4185;41.506;24.938;2023-04-25T13:16:45;4.03;;;2.77;;
8293;SDS011;4185;41.506;24.938;2023-04-25T13:19:12;3.10;;;2.90;;
8293;SDS011;4185;41.506;24.938;2023-04-25T13:21:38;2.80;;;2.60;;
8293;SDS011;4185;41.506;24.938;2023-04-25T13:24:05;3.97;;;2.90;;
8293;SDS011;4185;41.506;24.938;2023-04-25T13:26:32;2.70;;;2.50;;
8293;SDS011;4185;41.506;24.938;2023-04-25T13:28:59;2.63;;;2.43;;
8293;SDS011;4185;41.506;24.938;2023-04-25T13:31:30;4.67;;;2.50;;
8293;SDS011;4185;41.506;24.938;2023-04-25T13:33:57;3.80;;;2.83;;
8293;SDS011;4185;41.506;24.938;2023-04-25T13:36:24;2.37;;;2.17;;
8293;SDS011;4185;41.506;24.938;2023-04-25T13:38:51;2.00;;;1.80;;
8293;SDS011;4185;41.506;24.938;2023-04-25T13:41:18;1.80;;;1.70;;
8293;SDS011;4185;41.506;24.938;2023-04-25T13:43:45;1.87;;;1.77;;
8293;SDS011;4185;41.506;24.938;2023-04-25T13:46:13;1.80;;;1.70;;
8293;SDS011;4185;41.506;24.938;2023-04-25T13:48:42;2.07;;;1.87;;
8293;SDS011;4185;41.506;24.938;2023-04-25T13:51:13;1.90;;;1.80;;
8293;SDS011;4185;41.506;24.938;2023-04-25T13:53:41;3.50;;;2.10;;
8293;SDS011;4185;41.506;24.938;2023-04-25T13:56:08;2.10;;;1.90;;
8293;SDS011;4185;41.506;24.938;2023-04-25T13:58:36;4.17;;;2.37;;
8293;SDS011;4185;41.506;24.938;2023-04-25T14:01:03;2.90;;;2.20;;
8293;SDS011;4185;41.506;24.938;2023-04-25T14:03:30;2.87;;;2.67;;
8293;SDS011;4185;41.506;24.938;2023-04-25T14:05:58;2.50;;;2.30;;
8293;SDS011;4185;41.506;24.938;2023-04-25T14:08:25;3.00;;;2.00;;
8293;SDS011;4185;41.506;24.938;2023-04-25T14:10:53;3.50;;;2.40;;
8293;SDS011;4185;41.506;24.938;2023-04-25T14:13:20;2.57;;;2.20;;
8293;SDS011;4185;41.506;24.938;2023-04-25T14:15:50;2.50;;;2.30;;
8293;SDS011;4185;41.506;24.938;2023-04-25T14:18:17;2.87;;;2.67;;
8293;SDS011;4185;41.506;24.938;2023-04-25T14:20:44;3.30;;;2.97;;
8293;SDS011;4185;41.506;24.938;2023-04-25T14:23:12;3.57;;;3.00;;
8293;SDS011;4185;41.506;24.938;2023-04-25T14:25:39;3.77;;;2.93;;
8293;SDS011;4185;41.506;24.938;2023-04-25T14:28:07;4.70;;;2.83;;
8293;SDS011;4185;41.506;24.938;2023-04-25T14:30:33;2.80;;;2.60;;
8293;SDS011;4185;41.506;24.938;2023-04-25T14:33:00;2.60;;;2.40;;
8293;SDS011;4185;41.506;24.938;2023-04-25T14:35:27;2.83;;;2.53;;
8293;SDS011;4185;41.506;24.938;2023-04-25T14:37:54;2.80;;;2.60;;
8293;SDS011;4185;41.506;24.938;2023-04-25T14:40:22;4.43;;;2.17;;
8293;SDS011;4185;41.506;24.938;2023-04-25T14:42:49;3.63;;;1.97;;
8293;SDS011;4185;41.506;24.938;2023-04-25T14:45:16;2.50;;;2.30;;
8293;SDS011;4185;41.506;24.938;2023-04-25T14:47:43;2.30;;;2.10;;
8293;SDS011;4185;41.506;24.938;2023-04-25T14:50:10;2.50;;;2.30;;
8293;SDS011;4185;41.506;24.938;2023-04-25T14:52:37;7.03;;;4.60;;
8293;SDS011;4185;41.506;24.938;2023-04-25T14:55:04;3.33;;;2.77;;
8293;SDS011;4185;41.506;24.938;2023-04-25T14:57:34;6.90;;;4.40;;
8293;SDS011;4185;41.506;24.938;2023-04-25T15:00:01;2.80;;;2.37;;
8293;SDS011;4185;41.506;24.938;2023-04-25T15:02:30;3.57;;;2.10;;
8293;SDS011;4185;41.506;24.938;2023-04-25T15:04:57;3.00;;;1.57;;